createdAt,value
2023-04-14T00:00:01.585Z,1.30
2023-04-14T00:02:29.391Z,1.00
2023-04-14T00:04:56.945Z,1.40
2023-04-14T00:07:24.427Z,1.70
2023-04-14T00:09:51.766Z,1.53
2023-04-14T00:12:19.092Z,1.33
2023-04-14T00:14:46.713Z,1.30
2023-04-14T00:17:14.072Z,1.37
2023-04-14T00:19:41.598Z,1.30
2023-04-14T00:22:09.107Z,1.30
2023-04-14T00:24:59.173Z,1.30
2023-04-14T00:27:26.713Z,1.40
2023-04-14T00:29:54.056Z,1.47
2023-04-14T00:32:21.617Z,1.10
2023-04-14T00:34:49.054Z,1.40
2023-04-14T00:37:16.922Z,1.50
2023-04-14T00:39:45.514Z,1.23
2023-04-14T00:42:12.829Z,1.40
2023-04-14T00:44:40.295Z,1.33
2023-04-14T00:47:07.816Z,1.43
2023-04-14T00:49:36.864Z,1.50
2023-04-14T00:52:04.526Z,1.30
2023-04-14T00:54:32.800Z,1.37
2023-04-14T00:57:00.653Z,1.30
2023-04-14T00:59:29.795Z,1.30
2023-04-14T01:01:57.752Z,1.37
2023-04-14T01:04:33.672Z,1.27
2023-04-14T01:07:08.878Z,1.20
2023-04-14T01:09:38.659Z,1.20
2023-04-14T01:12:07.447Z,1.30
2023-04-14T01:14:53.827Z,1.47
2023-04-14T01:17:40.129Z,1.37
2023-04-14T01:20:37.118Z,1.67
2023-04-14T01:23:13.670Z,1.40
2023-04-14T01:25:59.841Z,1.47
2023-04-14T01:28:46.719Z,1.30
2023-04-14T01:31:18.664Z,1.27
2023-04-14T01:33:49.925Z,1.47
2023-04-14T01:36:21.659Z,1.40
2023-04-14T01:38:49.700Z,1.67
2023-04-14T01:41:18.487Z,1.40
2023-04-14T01:43:49.882Z,1.50
2023-04-14T01:46:18.326Z,1.40
2023-04-14T01:48:45.954Z,1.20
2023-04-14T01:51:14.380Z,1.40
2023-04-14T01:53:43.752Z,1.60
2023-04-14T01:56:12.017Z,1.53
2023-04-14T01:58:39.843Z,1.50
2023-04-14T02:01:07.969Z,1.50
2023-04-14T02:03:35.932Z,1.37
2023-04-14T02:06:06.405Z,1.37
2023-04-14T02:08:34.604Z,1.67
2023-04-14T02:11:03.358Z,1.47
2023-04-14T02:13:32.448Z,1.63
2023-04-14T02:16:01.803Z,1.30
2023-04-14T02:18:31.514Z,1.30
2023-04-14T02:21:00.045Z,1.33
2023-04-14T02:23:28.493Z,1.43
2023-04-14T02:25:58.019Z,1.50
2023-04-14T02:28:29.102Z,1.67
2023-04-14T02:30:58.123Z,1.53
2023-04-14T02:33:29.363Z,1.50
2023-04-14T02:36:11.371Z,1.70
2023-04-14T02:38:43.011Z,1.40
2023-04-14T02:41:14.904Z,1.40
2023-04-14T02:43:44.894Z,1.40
2023-04-14T02:46:14.537Z,1.90
2023-04-14T02:48:43.095Z,1.40
2023-04-14T02:51:12.558Z,1.63
2023-04-14T02:53:40.340Z,1.53
2023-04-14T02:56:17.321Z,1.50
2023-04-14T02:58:46.366Z,1.43
2023-04-14T03:01:13.925Z,1.70
2023-04-14T03:03:41.460Z,1.67
2023-04-14T03:06:12.380Z,1.40
2023-04-14T03:08:41.480Z,1.33
2023-04-14T03:11:09.220Z,1.27
2023-04-14T03:13:38.662Z,1.50
2023-04-14T03:16:07.001Z,1.40
2023-04-14T03:18:35.476Z,1.53
2023-04-14T03:21:03.284Z,1.67
2023-04-14T03:23:33.321Z,1.80
2023-04-14T03:26:05.318Z,1.60
2023-04-14T03:28:35.662Z,1.50
2023-04-14T03:31:05.874Z,2.10
2023-04-14T03:33:47.798Z,1.50
2023-04-14T03:36:17.322Z,2.17
2023-04-14T03:38:46.472Z,1.60
2023-04-14T03:41:15.094Z,1.80
2023-04-14T03:43:43.694Z,1.47
2023-04-14T03:46:14.908Z,2.07
2023-04-14T03:48:45.702Z,1.73
2023-04-14T03:51:16.342Z,1.70
2023-04-14T03:53:45.611Z,1.60
2023-04-14T03:56:14.129Z,1.60
2023-04-14T03:58:50.862Z,1.63
2023-04-14T04:01:25.736Z,1.70
2023-04-14T04:03:55.106Z,1.80
2023-04-14T04:06:24.106Z,1.90
2023-04-14T04:08:52.218Z,1.83
2023-04-14T04:11:20.874Z,1.67
2023-04-14T04:13:50.592Z,1.50
2023-04-14T04:16:19.493Z,1.73
2023-04-14T04:18:48.613Z,1.67
2023-04-14T04:21:20.154Z,1.90
2023-04-14T04:23:49.433Z,1.67
2023-04-14T04:26:18.403Z,2.23
2023-04-14T04:28:47.336Z,2.00
2023-04-14T04:31:14.983Z,1.80
2023-04-14T04:33:42.985Z,1.53
2023-04-14T04:36:11.196Z,1.80
2023-04-14T04:38:43.109Z,2.00
2023-04-14T04:41:23.497Z,2.07
2023-04-14T04:43:51.967Z,1.63
2023-04-14T04:46:38.261Z,1.73
2023-04-14T04:49:06.060Z,1.70
2023-04-14T04:51:33.807Z,1.73
2023-04-14T04:54:01.504Z,2.47
2023-04-14T04:56:28.913Z,1.70
2023-04-14T04:58:56.437Z,1.80
2023-04-14T05:01:23.789Z,2.27
2023-04-14T05:03:51.665Z,2.23
2023-04-14T05:06:19.072Z,1.83
2023-04-14T05:08:46.688Z,2.20
2023-04-14T05:11:14.075Z,2.57
2023-04-14T05:13:41.548Z,2.70
2023-04-14T05:16:09.963Z,2.80
2023-04-14T05:18:37.496Z,2.20
2023-04-14T05:21:09.047Z,1.90
2023-04-14T05:23:37.156Z,3.40
2023-04-14T05:26:27.101Z,2.60
2023-04-14T05:28:52.554Z,2.70
2023-04-14T05:31:20.579Z,2.33
2023-04-14T05:33:47.919Z,3.07
2023-04-14T05:36:15.331Z,3.20
2023-04-14T05:38:43.032Z,2.97
2023-04-14T05:41:11.951Z,2.23
2023-04-14T05:43:39.392Z,2.33
2023-04-14T05:46:06.808Z,2.53
2023-04-14T05:48:36.019Z,3.00
2023-04-14T05:51:03.365Z,3.00
2023-04-14T05:53:30.790Z,2.70
2023-04-14T05:55:58.197Z,2.47
2023-04-14T05:58:28.441Z,2.23
2023-04-14T06:00:55.815Z,2.50
2023-04-14T06:03:23.617Z,2.73
2023-04-14T06:05:53.321Z,2.83
2023-04-14T06:08:21.281Z,2.57
2023-04-14T06:10:48.682Z,2.83
2023-04-14T06:13:16.884Z,3.30
2023-04-14T06:15:44.232Z,2.83
2023-04-14T06:18:11.635Z,2.47
2023-04-14T06:20:39.020Z,2.53
2023-04-14T06:23:06.748Z,3.00
2023-04-14T06:25:34.661Z,2.50
2023-04-14T06:28:04.877Z,2.53
2023-04-14T06:30:32.433Z,3.00
2023-04-14T06:33:04.246Z,3.20
2023-04-14T06:35:33.804Z,2.43
2023-04-14T06:38:02.408Z,2.37
2023-04-14T06:40:29.918Z,3.03
2023-04-14T06:42:57.349Z,2.73
2023-04-14T06:45:24.665Z,2.23
2023-04-14T06:47:52.453Z,2.73
2023-04-14T06:50:19.967Z,2.70
2023-04-14T06:52:47.327Z,2.90
2023-04-14T06:55:14.791Z,3.40
2023-04-14T06:57:42.251Z,2.40
2023-04-14T07:00:10.767Z,2.70
2023-04-14T07:02:38.463Z,2.70
2023-04-14T07:05:06.305Z,3.20
2023-04-14T07:07:37.671Z,2.33
2023-04-14T07:10:05.256Z,2.20
2023-04-14T07:12:32.727Z,2.60
2023-04-14T07:15:00.061Z,2.47
2023-04-14T07:17:27.855Z,2.43
2023-04-14T07:19:55.361Z,2.63
2023-04-14T07:22:22.785Z,2.47
2023-04-14T07:24:50.928Z,2.60
2023-04-14T07:27:18.364Z,2.60
2023-04-14T07:29:46.015Z,1.93
2023-04-14T07:32:13.576Z,2.20
2023-04-14T07:34:43.991Z,2.40
2023-04-14T07:37:11.923Z,2.20
2023-04-14T07:39:39.801Z,2.00
2023-04-14T07:42:07.488Z,2.57
2023-04-14T07:44:35.167Z,2.57
2023-04-14T07:47:02.690Z,2.70
2023-04-14T07:49:32.947Z,2.63
2023-04-14T07:52:02.927Z,1.97
2023-04-14T07:54:31.466Z,2.67
2023-04-14T07:56:58.935Z,2.70
2023-04-14T07:59:26.652Z,2.20
2023-04-14T08:01:54.172Z,2.50
2023-04-14T08:04:22.107Z,2.50
2023-04-14T08:06:49.496Z,2.50
2023-04-14T08:09:17.472Z,2.17
2023-04-14T08:11:44.850Z,2.83
2023-04-14T08:14:12.251Z,2.57
2023-04-14T08:16:39.727Z,2.90
2023-04-14T08:19:07.321Z,2.57
2023-04-14T08:21:34.743Z,2.87
2023-04-14T08:24:02.233Z,3.30
2023-04-14T08:26:29.826Z,2.83
2023-04-14T08:29:01.383Z,2.70
2023-04-14T08:31:29.214Z,2.40
2023-04-14T08:33:57.244Z,2.20
2023-04-14T08:36:25.123Z,2.10
2023-04-14T08:38:53.335Z,1.93
2023-04-14T08:41:21.346Z,2.00
2023-04-14T08:43:48.692Z,1.80
2023-04-14T08:46:16.769Z,1.57
2023-04-14T08:48:47.154Z,1.60
2023-04-14T08:51:28.140Z,1.77
2023-04-14T08:53:56.932Z,1.63
2023-04-14T08:56:25.505Z,1.30
2023-04-14T08:58:53.383Z,1.40
2023-04-14T09:01:21.065Z,1.50
2023-04-14T09:03:49.195Z,1.43
2023-04-14T09:06:16.624Z,1.70
2023-04-14T09:08:44.544Z,1.40
2023-04-14T09:11:12.644Z,1.83
2023-04-14T09:13:41.587Z,1.50
2023-04-14T09:16:09.486Z,1.50
2023-04-14T09:18:36.938Z,1.30
2023-04-14T09:21:50.726Z,1.60
2023-04-14T09:23:55.382Z,1.50
2023-04-14T09:26:23.065Z,1.50
2023-04-14T09:28:50.743Z,1.67
2023-04-14T09:31:18.701Z,1.57
2023-04-14T09:33:48.827Z,1.33
2023-04-14T09:36:25.863Z,2.03
2023-04-14T09:38:53.556Z,1.33
2023-04-14T09:41:22.734Z,1.57
2023-04-14T09:43:50.938Z,1.27
2023-04-14T09:46:18.379Z,1.17
2023-04-14T09:48:52.750Z,1.17
2023-04-14T09:51:39.080Z,1.30
2023-04-14T09:54:06.846Z,1.20
2023-04-14T09:56:34.484Z,1.20
2023-04-14T09:59:03.406Z,1.10
2023-04-14T10:01:32.476Z,1.00
2023-04-14T10:04:01.550Z,1.13
2023-04-14T10:06:30.982Z,1.13
2023-04-14T10:08:59.191Z,1.17
2023-04-14T10:11:29.340Z,0.90
2023-04-14T10:14:01.852Z,1.10
2023-04-14T10:16:29.602Z,1.13
2023-04-14T10:18:58.617Z,1.13
2023-04-14T10:21:27.821Z,1.10
2023-04-14T10:23:56.920Z,1.00
2023-04-14T10:26:24.458Z,1.00
2023-04-14T10:28:52.799Z,1.10
2023-04-14T10:31:38.796Z,1.20
2023-04-14T10:34:12.848Z,1.20
2023-04-14T10:36:40.583Z,1.10
2023-04-14T10:39:09.741Z,1.00
2023-04-14T10:41:48.500Z,1.40
2023-04-14T10:44:35.089Z,1.23
2023-04-14T10:47:05.068Z,1.30
2023-04-14T10:49:34.034Z,1.20
2023-04-14T10:52:13.541Z,1.10
2023-04-14T10:54:54.255Z,1.30
2023-04-14T10:57:25.486Z,1.37
2023-04-14T10:59:57.362Z,1.20
2023-04-14T11:02:31.127Z,1.30
2023-04-14T11:05:11.984Z,1.50
2023-04-14T11:07:45.227Z,1.20
2023-04-14T11:10:25.741Z,1.40
2023-04-14T11:13:02.414Z,1.33
2023-04-14T11:15:46.856Z,1.13
2023-04-14T11:18:29.533Z,1.10
2023-04-14T11:21:06.912Z,1.27
2023-04-14T11:23:35.510Z,1.13
2023-04-14T11:26:05.563Z,1.30
2023-04-14T11:28:33.981Z,1.50
2023-04-14T11:31:03.447Z,1.40
2023-04-14T11:33:32.502Z,1.20
2023-04-14T11:36:00.197Z,1.17
2023-04-14T11:38:27.868Z,1.10
2023-04-14T11:40:56.743Z,1.37
2023-04-14T11:43:30.791Z,1.30
2023-04-14T11:45:58.949Z,1.40
2023-04-14T11:48:28.331Z,1.40
2023-04-14T11:51:01.139Z,1.50
2023-04-14T11:53:28.745Z,1.20
2023-04-14T11:55:57.582Z,1.10
2023-04-14T11:58:26.680Z,1.10
2023-04-14T12:03:42.521Z,0.93
2023-04-14T12:06:10.509Z,1.33
2023-04-14T12:08:37.812Z,1.13
2023-04-14T12:11:15.317Z,1.20
2023-04-14T12:13:47.437Z,1.13
2023-04-14T12:16:15.834Z,1.37
2023-04-14T12:18:43.948Z,1.30
2023-04-14T12:21:12.469Z,1.23
2023-04-14T12:23:41.389Z,1.03
2023-04-14T12:26:12.461Z,1.10
2023-04-14T12:28:44.890Z,1.17
2023-04-14T12:31:12.379Z,1.20
2023-04-14T12:33:39.809Z,1.20
2023-04-14T12:36:08.119Z,1.50
2023-04-14T12:38:35.544Z,1.30
2023-04-14T12:41:04.961Z,1.37
2023-04-14T12:43:33.602Z,1.20
2023-04-14T12:46:01.109Z,1.27
2023-04-14T12:48:41.687Z,1.20
2023-04-14T12:51:11.044Z,1.20
2023-04-14T12:53:40.241Z,1.03
2023-04-14T12:56:15.936Z,1.10
2023-04-14T12:58:46.641Z,1.00
2023-04-14T13:01:15.446Z,1.00
2023-04-14T13:03:51.797Z,0.90
2023-04-14T13:06:20.974Z,1.03
2023-04-14T13:08:49.443Z,1.10
2023-04-14T13:11:17.482Z,1.10
2023-04-14T13:13:45.676Z,0.90
2023-04-14T13:16:16.768Z,1.00
2023-04-14T13:18:46.582Z,1.30
2023-04-14T13:21:14.400Z,1.30
2023-04-14T13:23:41.952Z,1.20
2023-04-14T13:26:09.606Z,1.20
2023-04-14T13:28:37.885Z,1.27
2023-04-14T13:31:05.980Z,1.33
2023-04-14T13:33:33.774Z,1.13
2023-04-14T13:36:02.347Z,1.30
2023-04-14T13:38:30.039Z,1.13
2023-04-14T13:40:57.524Z,1.30
2023-04-14T13:43:25.090Z,1.07
2023-04-14T13:45:52.807Z,1.40
2023-04-14T13:48:20.413Z,1.33
2023-04-14T13:50:47.801Z,1.30
2023-04-14T13:53:15.305Z,1.40
2023-04-14T13:55:42.756Z,1.40
2023-04-14T13:58:10.395Z,1.20
2023-04-14T14:00:37.750Z,1.30
2023-04-14T14:03:05.227Z,1.20
2023-04-14T14:05:33.218Z,1.10
2023-04-14T14:08:00.676Z,1.10
2023-04-14T14:10:27.988Z,1.07
2023-04-14T14:12:55.447Z,1.10
2023-04-14T14:15:23.463Z,0.90
2023-04-14T14:17:53.041Z,1.10
2023-04-14T14:20:20.632Z,0.90
2023-04-14T14:22:48.497Z,1.00
2023-04-14T14:25:21.060Z,1.00
2023-04-14T14:27:51.778Z,0.97
2023-04-14T14:30:19.407Z,0.90
2023-04-14T14:32:46.861Z,1.00
2023-04-14T14:35:14.342Z,1.10
2023-04-14T14:37:43.311Z,1.00
2023-04-14T14:40:11.413Z,0.97
2023-04-14T14:42:38.848Z,1.00
2023-04-14T14:45:07.006Z,1.10
2023-04-14T14:47:34.471Z,1.10
2023-04-14T14:50:08.223Z,1.23
2023-04-14T14:52:36.474Z,1.10
2023-04-14T14:55:04.278Z,1.10
2023-04-14T14:57:31.704Z,1.37
2023-04-14T14:59:59.156Z,0.93
2023-04-14T15:02:27.392Z,1.00
2023-04-14T15:04:55.105Z,1.03
2023-04-14T15:07:22.526Z,1.07
2023-04-14T15:09:51.010Z,1.03
2023-04-14T15:12:18.482Z,0.90
2023-04-14T15:14:46.088Z,1.00
2023-04-14T15:17:13.581Z,0.90
2023-04-14T15:19:42.106Z,1.10
2023-04-14T15:22:10.561Z,1.10
2023-04-14T15:24:37.936Z,0.97
2023-04-14T15:27:05.899Z,1.10
2023-04-14T15:29:33.332Z,0.90
2023-04-14T15:32:04.027Z,0.90
2023-04-14T15:34:31.666Z,1.10
2023-04-14T15:37:00.511Z,1.00
2023-04-14T15:39:28.735Z,1.20
2023-04-14T15:41:57.023Z,1.10
2023-04-14T15:44:26.235Z,1.03
2023-04-14T15:46:53.893Z,1.10
2023-04-14T15:49:21.825Z,0.90
2023-04-14T15:51:50.548Z,0.97
2023-04-14T15:54:18.014Z,1.30
2023-04-14T15:56:45.522Z,1.00
2023-04-14T15:59:13.661Z,1.00
2023-04-14T16:01:41.448Z,1.10
2023-04-14T16:04:08.964Z,1.20
2023-04-14T16:06:37.678Z,1.07
2023-04-14T16:09:05.214Z,1.00
2023-04-14T16:11:33.719Z,1.00
2023-04-14T16:14:01.391Z,0.90
2023-04-14T16:16:29.765Z,1.00
2023-04-14T16:18:57.132Z,1.03
2023-04-14T16:21:24.488Z,1.10
2023-04-14T16:23:51.881Z,1.00
2023-04-14T16:26:20.153Z,1.03
2023-04-14T16:28:47.553Z,1.00
2023-04-14T16:31:15.015Z,0.93
2023-04-14T16:33:42.475Z,0.80
2023-04-14T16:36:09.949Z,1.13
2023-04-14T16:38:37.406Z,1.07
2023-04-14T16:41:04.928Z,1.00
2023-04-14T16:43:32.758Z,0.90
2023-04-14T16:46:04.309Z,1.20
2023-04-14T16:48:33.467Z,0.90
2023-04-14T16:51:04.865Z,0.97
2023-04-14T16:53:32.289Z,1.00
2023-04-14T16:56:04.344Z,1.10
2023-04-14T16:58:32.075Z,1.10
2023-04-14T17:01:00.377Z,0.90
2023-04-14T17:03:27.939Z,0.90
2023-04-14T17:05:55.500Z,0.70
2023-04-14T17:08:23.057Z,1.27
2023-04-14T17:10:50.700Z,1.00
2023-04-14T17:13:18.026Z,0.90
2023-04-14T17:15:45.719Z,1.10
2023-04-14T17:18:14.267Z,1.00
2023-04-14T17:20:42.466Z,0.97
2023-04-14T17:23:09.965Z,1.10
2023-04-14T17:25:37.956Z,0.90
2023-04-14T17:28:06.354Z,0.77
2023-04-14T17:30:35.129Z,0.80
2023-04-14T17:33:03.858Z,0.90
2023-04-14T17:35:32.229Z,1.10
2023-04-14T17:37:59.731Z,0.87
2023-04-14T17:40:28.286Z,0.90
2023-04-14T17:42:56.380Z,1.00
2023-04-14T17:45:23.977Z,0.83
2023-04-14T17:47:53.557Z,0.80
2023-04-14T17:50:24.677Z,0.93
2023-04-14T17:52:53.038Z,1.00
2023-04-14T17:55:21.473Z,1.03
2023-04-14T17:57:50.207Z,1.00
2023-04-14T18:00:17.690Z,1.10
2023-04-14T18:02:45.322Z,1.50
2023-04-14T18:05:14.257Z,1.23
2023-04-14T18:07:42.661Z,1.30
2023-04-14T18:10:10.485Z,1.37
2023-04-14T18:12:37.935Z,1.40
2023-04-14T18:15:06.072Z,1.23
2023-04-14T18:17:35.982Z,1.20
2023-04-14T18:20:04.366Z,1.30
2023-04-14T18:22:31.732Z,1.47
2023-04-14T18:24:59.144Z,1.50
2023-04-14T18:29:56.851Z,1.20
2023-04-14T18:32:27.790Z,1.10
2023-04-14T18:34:55.202Z,1.30
2023-04-14T18:37:22.477Z,1.30
2023-04-14T18:39:50.332Z,1.20
2023-04-14T18:42:17.773Z,1.43
2023-04-14T18:44:45.075Z,1.43
2023-04-14T18:47:12.517Z,1.20
2023-04-14T18:49:40.389Z,1.17
2023-04-14T18:52:08.194Z,1.30
2023-04-14T18:54:35.742Z,1.20
2023-04-14T18:57:03.325Z,1.40
2023-04-14T18:59:30.694Z,1.50
2023-04-14T19:01:58.343Z,1.20
2023-04-14T19:04:25.973Z,1.20
2023-04-14T19:06:53.425Z,1.40
2023-04-14T19:09:20.774Z,1.23
2023-04-14T19:11:49.842Z,1.20
2023-04-14T19:14:17.411Z,1.30
2023-04-14T19:16:45.358Z,1.23
2023-04-14T19:19:12.734Z,1.33
2023-04-14T19:21:40.768Z,1.27
2023-04-14T19:24:12.472Z,1.20
2023-04-14T19:26:43.035Z,1.07
2023-04-14T19:29:10.450Z,1.10
2023-04-14T19:31:37.839Z,1.07
2023-04-14T19:34:05.464Z,1.00
2023-04-14T19:36:34.309Z,1.20
2023-04-14T19:39:05.169Z,1.20
2023-04-14T19:41:33.054Z,1.20
2023-04-14T19:44:00.626Z,1.27
2023-04-14T19:46:28.391Z,1.33
2023-04-14T19:48:56.931Z,1.30
2023-04-14T19:51:27.745Z,1.27
2023-04-14T19:53:55.267Z,1.30
2023-04-14T19:56:22.749Z,1.40
2023-04-14T19:58:51.797Z,1.40
2023-04-14T20:01:20.676Z,1.13
2023-04-14T20:04:08.523Z,1.27
2023-04-14T20:06:35.892Z,1.20
2023-04-14T20:09:04.395Z,1.20
2023-04-14T20:11:31.980Z,1.33
2023-04-14T20:13:59.823Z,1.30
2023-04-14T20:16:28.078Z,1.30
2023-04-14T20:18:55.534Z,1.43
2023-04-14T20:21:23.241Z,1.30
2023-04-14T20:23:51.313Z,1.20
2023-04-14T20:26:18.739Z,1.07
2023-04-14T20:28:47.598Z,1.40
2023-04-14T20:31:15.739Z,1.10
2023-04-14T20:33:44.291Z,1.30
2023-04-14T20:36:11.650Z,1.20
2023-04-14T20:38:38.984Z,1.20
2023-04-14T20:41:06.385Z,1.17
2023-04-14T20:43:34.403Z,1.37
2023-04-14T20:46:02.467Z,1.27
2023-04-14T20:48:30.687Z,1.40
2023-04-14T20:50:59.605Z,1.10
2023-04-14T20:53:28.566Z,1.20
2023-04-14T20:55:56.387Z,1.37
2023-04-14T20:58:23.819Z,1.37
2023-04-14T21:00:51.467Z,1.20
2023-04-14T21:03:19.844Z,1.60
2023-04-14T21:05:48.323Z,1.40
2023-04-14T21:08:15.871Z,1.40
2023-04-14T21:11:02.169Z,1.53
2023-04-14T21:15:29.877Z,1.20
2023-04-14T21:16:18.140Z,1.60
2023-04-14T21:18:45.502Z,1.50
2023-04-14T21:21:13.573Z,1.40
2023-04-14T21:23:41.465Z,1.50
2023-04-14T21:26:09.207Z,1.20
2023-04-14T21:28:36.928Z,1.40
2023-04-14T21:31:04.618Z,1.50
2023-04-14T21:33:32.435Z,1.43
2023-04-14T21:36:00.496Z,1.57
2023-04-14T21:38:28.012Z,1.50
2023-04-14T21:40:55.741Z,1.60
2023-04-14T21:43:23.201Z,1.53
2023-04-14T21:45:50.826Z,1.23
2023-04-14T21:48:19.209Z,1.47
2023-04-14T21:50:46.720Z,1.30
2023-04-14T21:53:14.226Z,1.47
2023-04-14T21:55:42.163Z,1.53
2023-04-14T21:58:09.916Z,1.93
2023-04-14T22:00:37.458Z,1.40
2023-04-14T22:03:05.138Z,1.63
2023-04-14T22:05:32.719Z,1.87
2023-04-14T22:08:00.239Z,1.70
2023-04-14T22:10:32.072Z,1.70
2023-04-14T22:13:00.461Z,1.90
2023-04-14T22:15:28.077Z,1.57
2023-04-14T22:17:55.868Z,1.80
2023-04-14T22:20:24.131Z,1.53
2023-04-14T22:22:52.558Z,1.43
2023-04-14T22:25:20.486Z,1.70
2023-04-14T22:27:47.913Z,1.57
2023-04-14T22:30:15.871Z,1.77
2023-04-14T22:32:43.329Z,1.40
2023-04-14T22:35:10.977Z,1.70
2023-04-14T22:37:38.442Z,1.77
2023-04-14T22:40:06.147Z,1.60
2023-04-14T22:42:33.684Z,1.60
2023-04-14T22:45:01.451Z,1.70
2023-04-14T22:47:28.995Z,1.90
2023-04-14T22:49:56.462Z,1.63
2023-04-14T22:52:23.920Z,1.80
2023-04-14T22:54:51.668Z,1.70
2023-04-14T22:57:19.529Z,1.70
2023-04-14T22:59:47.535Z,1.63
2023-04-14T23:02:15.051Z,1.50
2023-04-14T23:04:42.646Z,1.60
2023-04-14T23:07:10.113Z,1.70
2023-04-14T23:09:37.467Z,1.67
2023-04-14T23:12:05.110Z,1.80
2023-04-14T23:14:32.667Z,1.77
2023-04-14T23:17:00.099Z,1.83
2023-04-14T23:19:27.642Z,1.90
2023-04-14T23:21:55.086Z,1.97
2023-04-14T23:24:23.560Z,1.97
2023-04-14T23:26:51.483Z,2.03
2023-04-14T23:29:19.034Z,1.90
2023-04-14T23:31:46.815Z,1.53
2023-04-14T23:34:14.270Z,2.30
2023-04-14T23:36:41.798Z,2.03
2023-04-14T23:39:09.298Z,2.10
2023-04-14T23:41:36.870Z,2.03
2023-04-14T23:44:04.935Z,1.83
2023-04-14T23:46:32.716Z,2.00
2023-04-14T23:49:03.037Z,1.60
2023-04-14T23:51:48.323Z,1.90
2023-04-14T23:54:16.713Z,1.63
2023-04-14T23:56:44.254Z,2.10
2023-04-14T23:59:11.944Z,2.00
